createdAt,value
2023-07-07T00:03:12.829Z,101165.80
2023-07-07T00:08:19.280Z,101168.00
2023-07-07T00:13:22.143Z,101161.20
2023-07-07T00:18:27.583Z,101160.00
2023-07-07T00:23:31.684Z,101160.00
2023-07-07T00:28:35.861Z,101156.00
2023-07-07T00:33:38.629Z,101156.80
2023-07-07T00:38:41.541Z,101164.80
2023-07-07T00:44:08.795Z,101163.60
2023-07-07T00:49:21.804Z,101168.00
2023-07-07T00:54:34.727Z,101173.80
2023-07-07T00:59:45.865Z,101177.80
2023-07-07T01:04:51.000Z,101185.40
2023-07-07T01:10:05.108Z,101181.60
2023-07-07T01:15:12.775Z,101188.40
2023-07-07T01:20:38.773Z,101192.40
2023-07-07T01:26:23.712Z,101187.60
2023-07-07T01:31:44.097Z,101195.40
2023-07-07T01:36:50.380Z,101191.80
2023-07-07T01:42:14.938Z,101189.20
2023-07-07T01:47:28.275Z,101193.00
2023-07-07T01:52:36.787Z,101195.80
2023-07-07T01:57:46.892Z,101205.80
2023-07-07T02:02:56.274Z,101201.40
2023-07-07T02:08:01.515Z,101202.80
2023-07-07T02:13:09.724Z,101197.40
2023-07-07T02:18:12.631Z,101205.60
2023-07-07T02:23:15.664Z,101207.00
2023-07-07T02:28:18.303Z,101206.20
2023-07-07T02:33:32.005Z,101204.20
2023-07-07T02:38:38.550Z,101206.80
2023-07-07T02:43:42.118Z,101204.20
2023-07-07T02:48:44.903Z,101205.40
2023-07-07T02:53:47.779Z,101198.60
2023-07-07T02:58:50.518Z,101197.00
2023-07-07T03:03:58.908Z,101198.80
2023-07-07T03:09:01.700Z,101198.40
2023-07-07T03:14:06.690Z,101198.00
2023-07-07T03:19:12.317Z,101195.00
2023-07-07T03:24:17.320Z,101192.60
2023-07-07T03:29:22.077Z,101195.40
2023-07-07T03:34:26.856Z,101190.80
2023-07-07T03:39:29.608Z,101188.00
2023-07-07T03:44:34.657Z,101191.00
2023-07-07T03:49:37.283Z,101194.00
2023-07-07T03:54:42.451Z,101193.80
2023-07-07T03:59:45.457Z,101199.40
2023-07-07T04:04:50.167Z,101204.60
2023-07-07T04:09:54.618Z,101218.80
2023-07-07T04:14:59.644Z,101214.20
2023-07-07T04:20:09.407Z,101221.20
2023-07-07T04:25:20.266Z,101223.40
2023-07-07T04:30:23.074Z,101224.40
2023-07-07T04:35:25.662Z,101222.20
2023-07-07T04:40:32.462Z,101227.20
2023-07-07T04:45:35.172Z,101224.20
2023-07-07T04:50:40.072Z,101235.80
2023-07-07T04:55:46.606Z,101240.20
2023-07-07T05:00:50.122Z,101244.00
2023-07-07T05:05:52.872Z,101240.20
2023-07-07T05:10:55.847Z,101245.20
2023-07-07T05:16:09.126Z,101250.40
2023-07-07T05:21:18.378Z,101260.00
2023-07-07T05:26:31.119Z,101253.00
2023-07-07T05:31:38.725Z,101250.60
2023-07-07T05:36:41.885Z,101243.00
2023-07-07T05:41:46.712Z,101249.40
2023-07-07T05:46:49.577Z,101258.20
2023-07-07T05:51:52.405Z,101255.80
2023-07-07T05:57:00.278Z,101261.80
2023-07-07T06:02:04.471Z,101268.40
2023-07-07T06:07:08.587Z,101266.60
2023-07-07T06:12:12.760Z,101260.80
2023-07-07T06:17:15.562Z,101261.20
2023-07-07T06:22:18.412Z,101270.40
2023-07-07T06:27:21.883Z,101277.20
2023-07-07T06:32:25.107Z,101274.20
2023-07-07T06:37:30.373Z,101283.80
2023-07-07T06:42:33.365Z,101295.60
2023-07-07T06:47:36.598Z,101295.00
2023-07-07T06:52:39.466Z,101294.40
2023-07-07T06:57:42.162Z,101294.00
2023-07-07T07:02:47.996Z,101286.00
2023-07-07T07:07:51.374Z,101287.00
2023-07-07T07:12:54.087Z,101287.60
2023-07-07T07:17:56.860Z,101286.00
2023-07-07T07:23:02.169Z,101293.40
2023-07-07T07:28:05.056Z,101292.20
2023-07-07T07:33:20.461Z,101291.80
2023-07-07T07:38:23.376Z,101297.00
2023-07-07T07:43:26.064Z,101299.80
2023-07-07T07:48:29.376Z,101304.40
2023-07-07T07:53:32.003Z,101304.80
2023-07-07T07:58:36.640Z,101303.60
2023-07-07T08:03:41.692Z,101306.60
2023-07-07T08:08:45.015Z,101296.80
2023-07-07T08:13:50.186Z,101302.20
2023-07-07T08:18:52.912Z,101306.60
2023-07-07T08:24:01.915Z,101313.80
2023-07-07T08:29:04.650Z,101309.20
2023-07-07T08:34:07.629Z,101314.80
2023-07-07T08:39:23.761Z,101314.20
2023-07-07T08:44:31.215Z,101311.00
2023-07-07T08:49:58.556Z,101324.80
2023-07-07T08:55:38.369Z,101330.00
2023-07-07T09:01:07.232Z,101333.20
2023-07-07T09:06:30.229Z,101332.40
2023-07-07T09:12:26.644Z,101329.00
2023-07-07T09:17:37.631Z,101327.20
2023-07-07T09:22:52.315Z,101328.80
2023-07-07T09:28:07.546Z,101328.40
2023-07-07T09:33:20.508Z,101328.40
2023-07-07T09:39:03.054Z,101334.00
2023-07-07T09:44:56.271Z,101344.20
2023-07-07T09:50:25.311Z,101345.40
2023-07-07T09:55:33.317Z,101338.80
2023-07-07T10:00:44.610Z,101349.60
2023-07-07T10:05:55.385Z,101343.00
2023-07-07T10:16:31.207Z,101375.60
2023-07-07T10:21:39.426Z,101362.40
2023-07-07T10:26:48.859Z,101361.40
2023-07-07T10:31:53.459Z,101345.00
2023-07-07T10:36:58.719Z,101362.80
2023-07-07T10:42:10.532Z,101372.80
2023-07-07T10:47:23.822Z,101368.80
2023-07-07T10:59:14.180Z,101374.20
2023-07-07T11:04:48.950Z,101369.00
2023-07-07T11:10:23.218Z,101369.20
2023-07-07T11:16:09.950Z,101362.40
2023-07-07T11:22:29.589Z,101362.40
2023-07-07T11:28:31.536Z,101363.20
2023-07-07T11:34:09.677Z,101363.00
2023-07-07T11:39:50.803Z,101356.60
2023-07-07T11:45:21.819Z,101359.60
2023-07-07T11:50:47.124Z,101367.00
2023-07-07T11:56:34.677Z,101370.80
2023-07-07T12:01:51.046Z,101359.00
2023-07-07T12:07:25.726Z,101352.00
2023-07-07T12:12:56.575Z,101345.60
2023-07-07T12:18:21.100Z,101343.80
2023-07-07T12:23:32.544Z,101352.80
2023-07-07T12:28:59.920Z,101342.40
2023-07-07T12:35:01.331Z,101340.20
2023-07-07T12:40:09.993Z,101348.00
2023-07-07T12:45:12.750Z,101343.20
2023-07-07T12:50:34.870Z,101339.00
2023-07-07T12:55:59.892Z,101342.80
2023-07-07T13:01:21.228Z,101342.80
2023-07-07T13:06:52.888Z,101338.00
2023-07-07T13:11:59.206Z,101336.80
2023-07-07T13:17:26.062Z,101332.40
2023-07-07T13:22:46.709Z,101331.20
2023-07-07T13:27:54.154Z,101331.00
2023-07-07T13:32:59.913Z,101324.00
2023-07-07T13:38:10.838Z,101330.20
2023-07-07T13:43:31.284Z,101334.20
2023-07-07T13:48:34.159Z,101328.80
2023-07-07T13:53:48.303Z,101335.00
2023-07-07T13:58:55.688Z,101334.00
2023-07-07T14:04:03.113Z,101334.20
2023-07-07T14:09:35.541Z,101335.20
2023-07-07T14:14:41.362Z,101330.60
2023-07-07T14:20:00.613Z,101327.00
2023-07-07T14:25:06.405Z,101325.00
2023-07-07T14:30:25.518Z,101331.00
2023-07-07T14:35:33.695Z,101329.20
2023-07-07T14:40:46.167Z,101321.60
2023-07-07T14:45:59.508Z,101315.20
2023-07-07T14:51:10.410Z,101315.00
2023-07-07T14:56:34.372Z,101312.20
2023-07-07T15:01:38.898Z,101318.00
2023-07-07T15:06:54.598Z,101319.00
2023-07-07T15:11:59.552Z,101313.60
2023-07-07T15:17:02.759Z,101319.00
2023-07-07T15:22:18.335Z,101309.20
2023-07-07T15:27:21.877Z,101307.80
2023-07-07T15:32:24.993Z,101311.20
2023-07-07T15:37:30.408Z,101309.60
2023-07-07T15:42:33.204Z,101306.00
2023-07-07T15:47:38.848Z,101306.00
2023-07-07T15:52:44.203Z,101305.20
2023-07-07T15:57:47.250Z,101304.40
2023-07-07T16:02:52.500Z,101305.00
2023-07-07T16:07:58.848Z,101306.60
2023-07-07T16:13:01.494Z,101300.00
2023-07-07T16:18:04.361Z,101301.80
2023-07-07T16:23:09.521Z,101301.60
2023-07-07T16:28:12.841Z,101298.00
2023-07-07T16:33:19.665Z,101293.80
2023-07-07T16:38:24.297Z,101289.40
2023-07-07T16:43:38.152Z,101284.20
2023-07-07T16:48:47.139Z,101282.60
2023-07-07T16:53:52.053Z,101292.20
2023-07-07T16:58:55.148Z,101281.60
2023-07-07T17:04:02.409Z,101281.00
2023-07-07T17:09:19.362Z,101279.80
2023-07-07T17:14:22.154Z,101282.20
2023-07-07T17:19:27.862Z,101288.00
2023-07-07T17:24:30.861Z,101293.20
2023-07-07T17:29:36.566Z,101302.60
2023-07-07T17:34:39.426Z,101309.00
2023-07-07T17:39:42.326Z,101313.20
2023-07-07T17:44:45.017Z,101315.40
2023-07-07T17:49:48.366Z,101314.80
2023-07-07T17:54:51.028Z,101325.40
2023-07-07T17:59:57.717Z,101330.40
2023-07-07T18:05:00.505Z,101333.60
2023-07-07T18:10:17.166Z,101345.80
2023-07-07T18:15:21.172Z,101348.60
2023-07-07T18:21:32.963Z,101354.60
2023-07-07T18:26:34.305Z,101361.20
2023-07-07T18:31:40.569Z,101361.00
2023-07-07T18:36:48.652Z,101359.00
2023-07-07T18:41:52.608Z,101370.20
2023-07-07T18:47:03.027Z,101373.60
2023-07-07T18:52:09.521Z,101385.40
2023-07-07T18:57:17.611Z,101391.40
2023-07-07T19:02:20.293Z,101393.60
2023-07-07T19:07:23.167Z,101408.40
2023-07-07T19:12:25.872Z,101404.00
2023-07-07T19:17:28.562Z,101415.60
2023-07-07T19:22:31.911Z,101415.20
2023-07-07T19:27:35.961Z,101414.80
2023-07-07T19:32:39.738Z,101418.80
2023-07-07T19:37:42.644Z,101421.40
2023-07-07T19:42:45.601Z,101423.40
2023-07-07T19:47:49.019Z,101423.40
2023-07-07T19:52:52.605Z,101419.40
2023-07-07T19:57:58.400Z,101416.60
2023-07-07T20:03:01.215Z,101426.80
2023-07-07T20:08:16.467Z,101424.60
2023-07-07T20:13:19.276Z,101432.80
2023-07-07T20:18:24.523Z,101430.80
2023-07-07T20:23:27.304Z,101431.20
2023-07-07T20:28:30.029Z,101431.60
2023-07-07T20:33:35.473Z,101432.20
2023-07-07T20:38:47.202Z,101437.20
2023-07-07T20:43:50.351Z,101444.40
2023-07-07T20:48:53.938Z,101449.60
2023-07-07T20:53:58.107Z,101451.80
2023-07-07T20:59:02.572Z,101453.40
2023-07-07T21:04:08.984Z,101454.00
2023-07-07T21:09:16.408Z,101455.20
2023-07-07T21:14:19.495Z,101451.60
2023-07-07T21:19:24.369Z,101460.00
2023-07-07T21:24:27.052Z,101461.20
2023-07-07T21:29:31.390Z,101459.00
2023-07-07T21:34:35.552Z,101457.60
2023-07-07T21:39:38.411Z,101457.80
2023-07-07T21:44:42.018Z,101459.60
2023-07-07T21:49:48.615Z,101457.80
2023-07-07T21:54:51.473Z,101457.80
2023-07-07T21:59:54.247Z,101457.00
2023-07-07T22:04:57.072Z,101449.60
2023-07-07T22:10:08.985Z,101445.20
2023-07-07T22:15:13.117Z,101437.80
2023-07-07T22:20:39.560Z,101432.40
2023-07-07T22:25:43.927Z,101429.40
2023-07-07T22:30:55.432Z,101428.40
2023-07-07T22:36:00.193Z,101425.40
2023-07-07T22:41:04.205Z,101422.00
2023-07-07T22:46:21.045Z,101414.00
2023-07-07T22:51:26.297Z,101405.00
2023-07-07T22:56:35.034Z,101411.20
2023-07-07T23:01:39.540Z,101405.80
2023-07-07T23:06:46.761Z,101403.80
2023-07-07T23:11:49.832Z,101407.20
2023-07-07T23:16:54.819Z,101404.80
2023-07-07T23:22:01.305Z,101401.80
2023-07-07T23:27:11.637Z,101399.20
2023-07-07T23:32:16.781Z,101404.00
2023-07-07T23:37:31.291Z,101402.00
2023-07-07T23:42:35.727Z,101400.00
2023-07-07T23:47:46.900Z,101399.60
2023-07-07T23:52:56.100Z,101393.80
2023-07-07T23:58:03.597Z,101385.80
